2VA2 weather

Melville Airstrip
Surry, Virginia, United States

Public forecast

Using degrees Fahrenheit for public forecast. Weather courtesy of forecast.io.

Closest aviation weather report (METAR) to Melville Airstrip

Closest report is Williamsburg Jamestown Airport, 6.6 nm (12.3 km) NNE. Retrieved 2020/08/08 23:35 UTC (6 minutes ago):

KJGG 082335Z AUTO 00000KT 10SM 26/24 A3014 RMK AO1

Closest aviation forecast (TAF) to Melville Airstrip

Closest forecast is Felker Army Air Field, 8.7 nm (16.1 km) E. Retrieved 2020/08/08 18:12 UTC (5 hours ago):

TAF KFAF 081800Z 0818/0924 VRB06KT 9999 SCT020 BKN030 QNH3006INS TEMPO 0819/0824 4800 -TSRA OVC020CB BECMG 0900/0901 VRB06KT 9999 SCT015 QNH3009INS BECMG 0914/0915 VRB06KT 9999 FEW020 QNH3004INS TX30/0819Z TN24/0910Z LAST NO AMDS AFT 0902 NEXT 0910